QFA875 YBCG-YMML
Flight info
| Callsign | QFA875 |
|---|---|
| Flight time | N/A |
| Altitude | 32000 |
| Route | GOMOL Q16 ISKIM Q35 DORSU H119 ML |
| Aircraft | B738/M-SDE2E3FGHIRWXY/LB1 |
Departure
| Time | 2026-05-06 23:27 |
|---|---|
| Airport | Gold Coast Airport (YBCG) |
Arrival
| Time | N/A |
|---|---|
| Airport | Melbourne Airport (YMML) |
| Time | Latitude | Longitude | Altitude | Speed | Heading |
|---|---|---|---|---|---|
| 2026-05-06 22:57 | -28.16720 | 153.51206 | 25 ft | 0 kts | 60° |
| 2026-05-06 23:18 | -28.16730 | 153.51187 | 26 ft | 4 kts | 62° |
| 2026-05-06 23:19 | -28.16742 | 153.51160 | 30 ft | 4 kts | 57° |
| 2026-05-06 23:19 | -28.16756 | 153.51140 | 28 ft | 3 kts | 43° |
| 2026-05-06 23:19 | -28.16768 | 153.51122 | 27 ft | 4 kts | 95° |
| 2026-05-06 23:19 | -28.16756 | 153.51097 | 30 ft | 4 kts | 141° |
| 2026-05-06 23:20 | -28.16744 | 153.51087 | 27 ft | 0 kts | 150° |
| 2026-05-06 23:22 | -28.16747 | 153.51089 | 30 ft | 2 kts | 150° |
| 2026-05-06 23:22 | -28.16792 | 153.51118 | 28 ft | 3 kts | 150° |
| 2026-05-06 23:22 | -28.16824 | 153.51139 | 26 ft | 0 kts | 150° |
| 2026-05-06 23:23 | -28.16825 | 153.51139 | 26 ft | 1 kts | 150° |
| 2026-05-06 23:23 | -28.16838 | 153.51142 | 26 ft | 0 kts | 172° |
| 2026-05-06 23:23 | -28.16861 | 153.51122 | 29 ft | 9 kts | 231° |
| 2026-05-06 23:24 | -28.16895 | 153.51090 | 27 ft | 9 kts | 198° |
| 2026-05-06 23:24 | -28.16983 | 153.51133 | 28 ft | 19 kts | 151° |
| 2026-05-06 23:24 | -28.17103 | 153.51210 | 26 ft | 22 kts | 150° |
| 2026-05-06 23:24 | -28.17252 | 153.51307 | 26 ft | 24 kts | 150° |
| 2026-05-06 23:25 | -28.17381 | 153.51389 | 26 ft | 17 kts | 151° |
| 2026-05-06 23:25 | -28.17504 | 153.51453 | 29 ft | 16 kts | 188° |
| 2026-05-06 23:25 | -28.17577 | 153.51356 | 27 ft | 19 kts | 254° |
| 2026-05-06 23:25 | -28.17502 | 153.51248 | 27 ft | 16 kts | 326° |
| 2026-05-06 23:26 | -28.17432 | 153.51204 | 29 ft | 0 kts | 331° |
| 2026-05-06 23:26 | -28.17430 | 153.51203 | 28 ft | 4 kts | 331° |
| 2026-05-06 23:27 | -28.17216 | 153.51067 | 26 ft | 76 kts | 330° |
| 2026-05-06 23:27 | -28.16513 | 153.50621 | 29 ft | 150 kts | 330° |
| 2026-05-06 23:27 | -28.15463 | 153.49962 | 360 ft | 187 kts | 331° |
| 2026-05-06 23:27 | -28.14259 | 153.49163 | 1262 ft | 199 kts | 327° |
| 2026-05-06 23:28 | -28.13085 | 153.48356 | 2072 ft | 206 kts | 325° |
| 2026-05-06 23:28 | -28.11971 | 153.47348 | 2864 ft | 211 kts | 309° |
| 2026-05-06 23:28 | -28.11219 | 153.45905 | 3655 ft | 217 kts | 290° |
| 2026-05-06 23:28 | -28.10908 | 153.44210 | 4340 ft | 230 kts | 275° |
| 2026-05-06 23:29 | -28.10921 | 153.42283 | 4580 ft | 258 kts | 265° |
| 2026-05-06 23:29 | -28.11253 | 153.40182 | 5025 ft | 276 kts | 255° |
| 2026-05-06 23:29 | -28.12010 | 153.38073 | 5365 ft | 299 kts | 243° |
| 2026-05-06 23:29 | -28.13152 | 153.36105 | 6215 ft | 303 kts | 233° |
| 2026-05-06 23:30 | -28.14602 | 153.34277 | 6631 ft | 323 kts | 226° |
| 2026-05-06 23:30 | -28.16233 | 153.32534 | 7581 ft | 315 kts | 224° |
| 2026-05-06 23:30 | -28.17861 | 153.30921 | 8537 ft | 306 kts | 223° |
| 2026-05-06 23:30 | -28.19467 | 153.29332 | 9091 ft | 312 kts | 226° |
| 2026-05-06 23:31 | -28.21059 | 153.27585 | 9272 ft | 327 kts | 228° |
| 2026-05-06 23:31 | -28.22752 | 153.25699 | 9072 ft | 360 kts | 227° |
| 2026-05-06 23:31 | -28.24634 | 153.23675 | 9063 ft | 383 kts | 225° |
| 2026-05-06 23:31 | -28.26609 | 153.21630 | 9829 ft | 379 kts | 226° |
| 2026-05-06 23:32 | -28.28474 | 153.19609 | 11025 ft | 362 kts | 229° |
| 2026-05-06 23:32 | -28.30184 | 153.17592 | 12356 ft | 345 kts | 232° |
| 2026-05-06 23:32 | -28.31746 | 153.15576 | 13304 ft | 340 kts | 234° |
| 2026-05-06 23:32 | -28.33271 | 153.13467 | 13681 ft | 352 kts | 236° |
| 2026-05-06 23:33 | -28.34842 | 153.11225 | 13545 ft | 376 kts | 235° |
| 2026-05-06 23:33 | -28.36568 | 153.08873 | 13405 ft | 398 kts | 234° |
| 2026-05-06 23:33 | -28.38378 | 153.06472 | 13931 ft | 399 kts | 233° |
| 2026-05-06 23:33 | -28.40168 | 153.04120 | 15002 ft | 383 kts | 234° |
| 2026-05-06 23:34 | -28.41920 | 153.01951 | 16316 ft | 367 kts | 230° |
| 2026-05-06 23:34 | -28.43771 | 153.00002 | 17358 ft | 360 kts | 227° |
| 2026-05-06 23:34 | -28.45666 | 152.98111 | 17831 ft | 366 kts | 227° |
| 2026-05-06 23:34 | -28.47591 | 152.96218 | 18357 ft | 370 kts | 226° |
| 2026-05-06 23:35 | -28.49553 | 152.94279 | 18754 ft | 375 kts | 227° |
| 2026-05-06 23:35 | -28.51519 | 152.92325 | 19299 ft | 376 kts | 227° |
| 2026-05-06 23:35 | -28.53485 | 152.90361 | 19814 ft | 377 kts | 227° |
| 2026-05-06 23:35 | -28.55480 | 152.88356 | 20373 ft | 377 kts | 228° |
| 2026-05-06 23:36 | -28.57458 | 152.86361 | 20875 ft | 380 kts | 228° |
| 2026-05-06 23:36 | -28.59436 | 152.84361 | 21361 ft | 382 kts | 228° |
| 2026-05-06 23:36 | -28.60753 | 152.83027 | 21688 ft | 383 kts | 228° |
| 2026-05-06 23:36 | -28.63422 | 152.80323 | 22354 ft | 386 kts | 229° |
| 2026-05-06 23:37 | -28.65437 | 152.78281 | 22784 ft | 389 kts | 229° |
| 2026-05-06 23:37 | -28.66769 | 152.76930 | 23095 ft | 390 kts | 229° |
| 2026-05-06 23:37 | -28.68809 | 152.74860 | 23570 ft | 391 kts | 229° |
| 2026-05-06 23:37 | -28.70843 | 152.72796 | 23932 ft | 394 kts | 229° |
| 2026-05-06 23:38 | -28.72917 | 152.70690 | 24289 ft | 396 kts | 230° |
| 2026-05-06 23:38 | -28.74976 | 152.68599 | 24677 ft | 396 kts | 230° |
| 2026-05-06 23:38 | -28.77032 | 152.66510 | 25127 ft | 397 kts | 230° |
| 2026-05-06 23:38 | -28.79097 | 152.64410 | 25519 ft | 398 kts | 231° |
| 2026-05-06 23:39 | -28.81167 | 152.62303 | 25887 ft | 399 kts | 231° |
| 2026-05-06 23:39 | -28.83239 | 152.60193 | 26259 ft | 401 kts | 231° |
| 2026-05-06 23:39 | -28.85290 | 152.58030 | 26584 ft | 399 kts | 235° |
| 2026-05-06 23:39 | -28.87110 | 152.55674 | 26926 ft | 395 kts | 239° |
| 2026-05-06 23:40 | -28.88862 | 152.53258 | 27270 ft | 395 kts | 240° |
| 2026-05-06 23:40 | -28.90602 | 152.50826 | 27598 ft | 397 kts | 239° |
| 2026-05-06 23:40 | -28.92357 | 152.48368 | 27844 ft | 400 kts | 240° |
| 2026-05-06 23:40 | -28.94121 | 152.45921 | 28352 ft | 397 kts | 240° |
| 2026-05-06 23:41 | -28.95858 | 152.43525 | 28988 ft | 390 kts | 240° |
| 2026-05-06 23:41 | -28.97583 | 152.41149 | 29517 ft | 387 kts | 241° |
| 2026-05-06 23:41 | -28.99300 | 152.38782 | 29908 ft | 387 kts | 241° |
| 2026-05-06 23:41 | -29.01018 | 152.36420 | 30277 ft | 387 kts | 241° |
| 2026-05-06 23:42 | -29.02751 | 152.34041 | 30678 ft | 384 kts | 241° |
| 2026-05-06 23:42 | -29.04457 | 152.31695 | 31064 ft | 383 kts | 240° |
| 2026-05-06 23:42 | -29.06167 | 152.29342 | 31230 ft | 387 kts | 240° |
| 2026-05-06 23:42 | -29.07888 | 152.26968 | 31515 ft | 387 kts | 240° |
| 2026-05-06 23:43 | -29.09600 | 152.24608 | 31907 ft | 384 kts | 241° |
| 2026-05-06 23:43 | -29.11308 | 152.22254 | 32090 ft | 386 kts | 241° |
| 2026-05-06 23:43 | -29.13002 | 152.19914 | 32124 ft | 387 kts | 241° |
| 2026-05-06 23:44 | -29.16432 | 152.15179 | 32123 ft | 382 kts | 241° |
| 2026-05-06 23:44 | -29.19809 | 152.10515 | 32136 ft | 381 kts | 241° |
| 2026-05-06 23:45 | -29.23189 | 152.05833 | 32185 ft | 382 kts | 240° |
| 2026-05-06 23:45 | -29.26595 | 152.01110 | 32149 ft | 385 kts | 240° |
| 2026-05-06 23:46 | -29.30014 | 151.96368 | 32136 ft | 387 kts | 240° |
| 2026-05-06 23:46 | -29.33439 | 151.91616 | 32125 ft | 388 kts | 240° |
| 2026-05-06 23:47 | -29.36882 | 151.86829 | 32141 ft | 389 kts | 240° |
| 2026-05-06 23:47 | -29.40315 | 151.82049 | 32138 ft | 390 kts | 240° |
| 2026-05-06 23:48 | -29.43763 | 151.77245 | 32162 ft | 391 kts | 239° |
| 2026-05-06 23:48 | -29.47220 | 151.72421 | 32151 ft | 392 kts | 239° |
| 2026-05-06 23:49 | -29.50790 | 151.67626 | 32150 ft | 399 kts | 233° |
| 2026-05-06 23:49 | -29.55348 | 151.63751 | 32162 ft | 417 kts | 220° |
| 2026-05-06 23:50 | -29.60424 | 151.60502 | 32154 ft | 418 kts | 219° |
| 2026-05-06 23:50 | -29.68048 | 151.55630 | 32161 ft | 418 kts | 219° |
| 2026-05-06 23:51 | -29.72991 | 151.52425 | 32147 ft | 417 kts | 219° |
| 2026-05-06 23:51 | -29.78160 | 151.49061 | 32153 ft | 415 kts | 219° |
| 2026-05-06 23:52 | -29.83186 | 151.45785 | 32152 ft | 415 kts | 219° |
| 2026-05-06 23:52 | -29.88203 | 151.42510 | 32163 ft | 415 kts | 219° |
| 2026-05-06 23:53 | -29.93230 | 151.39226 | 32162 ft | 415 kts | 219° |
| 2026-05-06 23:53 | -29.98246 | 151.35946 | 32165 ft | 415 kts | 219° |
| 2026-05-06 23:54 | -30.03268 | 151.32657 | 32180 ft | 415 kts | 219° |
| 2026-05-06 23:54 | -30.08321 | 151.29342 | 32170 ft | 416 kts | 219° |
| 2026-05-06 23:55 | -30.13298 | 151.26071 | 32167 ft | 416 kts | 219° |
| 2026-05-06 23:55 | -30.18321 | 151.22767 | 32170 ft | 415 kts | 219° |
| 2026-05-06 23:56 | -30.23339 | 151.19462 | 32169 ft | 415 kts | 219° |
| 2026-05-06 23:56 | -30.28351 | 151.16157 | 32195 ft | 415 kts | 219° |
| 2026-05-06 23:57 | -30.33366 | 151.12846 | 32169 ft | 415 kts | 219° |
| 2026-05-06 23:57 | -30.38415 | 151.09508 | 32177 ft | 415 kts | 219° |
| 2026-05-06 23:58 | -30.43425 | 151.06192 | 32176 ft | 415 kts | 219° |
| 2026-05-06 23:58 | -30.48438 | 151.02871 | 32192 ft | 415 kts | 219° |
| 2026-05-06 23:59 | -30.53454 | 150.99543 | 32187 ft | 416 kts | 219° |
| 2026-05-06 23:59 | -30.58474 | 150.96209 | 32192 ft | 415 kts | 219° |
| 2026-05-07 00:00 | -30.63486 | 150.92876 | 32192 ft | 415 kts | 219° |
| 2026-05-07 00:00 | -30.67649 | 150.90104 | 32195 ft | 415 kts | 219° |
| 2026-05-07 00:01 | -30.73507 | 150.86199 | 32203 ft | 416 kts | 219° |
| 2026-05-07 00:01 | -30.78521 | 150.82853 | 32206 ft | 416 kts | 219° |
| 2026-05-07 00:02 | -30.83540 | 150.79499 | 32201 ft | 416 kts | 219° |
| 2026-05-07 00:02 | -30.88545 | 150.76150 | 32189 ft | 416 kts | 219° |
| 2026-05-07 00:03 | -30.93552 | 150.72796 | 32230 ft | 415 kts | 219° |
| 2026-05-07 00:03 | -30.98551 | 150.69442 | 32177 ft | 415 kts | 219° |
| 2026-05-07 00:04 | -31.03575 | 150.66069 | 32161 ft | 414 kts | 219° |
| 2026-05-07 00:04 | -31.08287 | 150.62383 | 32173 ft | 399 kts | 230° |
| 2026-05-07 00:05 | -31.12404 | 150.58068 | 32183 ft | 398 kts | 231° |
| 2026-05-07 00:05 | -31.16534 | 150.53718 | 32185 ft | 398 kts | 231° |
| 2026-05-07 00:06 | -31.20658 | 150.49404 | 32177 ft | 398 kts | 231° |
| 2026-05-07 00:06 | -31.24788 | 150.45096 | 32183 ft | 397 kts | 231° |
| 2026-05-07 00:07 | -31.28238 | 150.41497 | 32182 ft | 397 kts | 231° |
| 2026-05-07 00:07 | -31.32333 | 150.37223 | 32229 ft | 397 kts | 231° |
| 2026-05-07 00:08 | -31.36467 | 150.32902 | 32187 ft | 397 kts | 232° |
| 2026-05-07 00:08 | -31.40572 | 150.28605 | 32177 ft | 396 kts | 232° |
| 2026-05-07 00:09 | -31.44675 | 150.24304 | 32172 ft | 396 kts | 232° |
| 2026-05-07 00:09 | -31.48774 | 150.20004 | 32172 ft | 395 kts | 232° |
| 2026-05-07 00:10 | -31.52877 | 150.15694 | 32194 ft | 395 kts | 232° |
| 2026-05-07 00:10 | -31.56964 | 150.11395 | 32183 ft | 394 kts | 232° |
| 2026-05-07 00:11 | -31.61042 | 150.07101 | 32167 ft | 393 kts | 232° |
| 2026-05-07 00:11 | -31.64992 | 150.02935 | 32179 ft | 393 kts | 232° |
| 2026-05-07 00:12 | -31.69055 | 149.98646 | 32181 ft | 392 kts | 232° |
| 2026-05-07 00:12 | -31.73104 | 149.94365 | 32176 ft | 392 kts | 232° |
| 2026-05-07 00:13 | -31.77141 | 149.90093 | 32170 ft | 391 kts | 233° |
| 2026-05-07 00:13 | -31.81181 | 149.85812 | 32191 ft | 389 kts | 233° |
| 2026-05-07 00:14 | -31.85196 | 149.81494 | 32191 ft | 386 kts | 235° |
| 2026-05-07 00:14 | -31.88947 | 149.77009 | 32221 ft | 383 kts | 237° |
| 2026-05-07 00:15 | -31.92637 | 149.72484 | 32192 ft | 383 kts | 237° |
| 2026-05-07 00:15 | -31.96273 | 149.68047 | 32178 ft | 384 kts | 237° |
| 2026-05-07 00:16 | -31.99986 | 149.63538 | 32183 ft | 383 kts | 237° |
| 2026-05-07 00:16 | -32.03689 | 149.59043 | 32179 ft | 383 kts | 237° |
| 2026-05-07 00:17 | -32.07393 | 149.54544 | 32177 ft | 383 kts | 237° |
| 2026-05-07 00:17 | -32.11095 | 149.50043 | 32181 ft | 382 kts | 237° |
| 2026-05-07 00:18 | -32.14817 | 149.45509 | 32188 ft | 382 kts | 237° |
| 2026-05-07 00:18 | -32.18506 | 149.41010 | 32187 ft | 381 kts | 237° |
| 2026-05-07 00:19 | -32.22194 | 149.36507 | 32197 ft | 381 kts | 237° |
| 2026-05-07 00:19 | -32.25881 | 149.31998 | 32233 ft | 382 kts | 238° |
| 2026-05-07 00:20 | -32.29575 | 149.27477 | 32202 ft | 382 kts | 238° |
| 2026-05-07 00:20 | -32.33269 | 149.22950 | 32197 ft | 382 kts | 238° |
| 2026-05-07 00:21 | -32.36970 | 149.18411 | 32196 ft | 380 kts | 238° |
| 2026-05-07 00:21 | -32.40638 | 149.13907 | 32193 ft | 379 kts | 238° |
| 2026-05-07 00:22 | -32.44296 | 149.09408 | 32193 ft | 379 kts | 238° |
| 2026-05-07 00:22 | -32.47945 | 149.04915 | 32193 ft | 379 kts | 238° |
| 2026-05-07 00:23 | -32.51595 | 149.00414 | 32197 ft | 378 kts | 238° |
| 2026-05-07 00:23 | -32.55230 | 148.95926 | 32200 ft | 377 kts | 238° |
| 2026-05-07 00:24 | -32.58864 | 148.91434 | 32208 ft | 376 kts | 238° |
| 2026-05-07 00:24 | -32.62486 | 148.86950 | 32212 ft | 377 kts | 238° |
| 2026-05-07 00:25 | -32.66136 | 148.82426 | 32205 ft | 376 kts | 238° |
| 2026-05-07 00:25 | -32.69741 | 148.77953 | 32214 ft | 376 kts | 238° |
| 2026-05-07 00:26 | -32.73321 | 148.73499 | 32216 ft | 375 kts | 237° |
| 2026-05-07 00:26 | -32.76950 | 148.68987 | 32285 ft | 375 kts | 237° |
| 2026-05-07 00:27 | -32.80440 | 148.64642 | 32225 ft | 375 kts | 237° |
| 2026-05-07 00:27 | -32.84056 | 148.60135 | 32221 ft | 373 kts | 237° |
| 2026-05-07 00:28 | -32.87629 | 148.55675 | 32226 ft | 372 kts | 238° |
| 2026-05-07 00:28 | -32.91189 | 148.51224 | 32229 ft | 371 kts | 238° |
| 2026-05-07 00:29 | -32.94731 | 148.46790 | 32261 ft | 370 kts | 237° |
| 2026-05-07 00:30 | -33.01800 | 148.37923 | 32229 ft | 368 kts | 237° |
| 2026-05-07 00:30 | -33.05320 | 148.33501 | 32239 ft | 366 kts | 237° |
| 2026-05-07 00:31 | -33.08818 | 148.29098 | 32241 ft | 365 kts | 237° |
| 2026-05-07 00:31 | -33.12312 | 148.24700 | 32281 ft | 365 kts | 236° |
| 2026-05-07 00:32 | -33.16256 | 148.20698 | 32254 ft | 376 kts | 229° |
| 2026-05-07 00:32 | -33.20397 | 148.16917 | 32244 ft | 374 kts | 228° |
| 2026-05-07 00:33 | -33.24494 | 148.13177 | 32256 ft | 372 kts | 228° |
| 2026-05-07 00:33 | -33.27959 | 148.09993 | 32253 ft | 371 kts | 228° |
| 2026-05-07 00:34 | -33.32062 | 148.06204 | 32262 ft | 371 kts | 228° |
| 2026-05-07 00:34 | -33.36131 | 148.02436 | 32257 ft | 370 kts | 228° |
| 2026-05-07 00:35 | -33.40222 | 147.98643 | 32260 ft | 369 kts | 228° |
| 2026-05-07 00:35 | -33.44254 | 147.94899 | 32257 ft | 369 kts | 228° |
| 2026-05-07 00:36 | -33.48393 | 147.91048 | 32271 ft | 369 kts | 227° |
| 2026-05-07 00:36 | -33.52438 | 147.87284 | 32259 ft | 369 kts | 227° |
| 2026-05-07 00:37 | -33.56487 | 147.83512 | 32261 ft | 368 kts | 227° |
| 2026-05-07 00:37 | -33.60551 | 147.79721 | 32261 ft | 367 kts | 227° |
| 2026-05-07 00:38 | -33.64580 | 147.75957 | 32327 ft | 367 kts | 226° |
| 2026-05-07 00:38 | -33.68616 | 147.72180 | 32273 ft | 368 kts | 226° |
| 2026-05-07 00:39 | -33.72653 | 147.68400 | 32265 ft | 367 kts | 226° |
| 2026-05-07 00:39 | -33.76683 | 147.64621 | 32228 ft | 366 kts | 226° |
| 2026-05-07 00:40 | -33.80667 | 147.60879 | 32250 ft | 364 kts | 225° |
| 2026-05-07 00:40 | -33.84655 | 147.57134 | 32259 ft | 363 kts | 226° |
| 2026-05-07 00:41 | -33.88654 | 147.53372 | 32263 ft | 362 kts | 226° |
| 2026-05-07 00:41 | -33.92614 | 147.49641 | 32263 ft | 361 kts | 226° |
| 2026-05-07 00:42 | -33.96569 | 147.45910 | 32268 ft | 361 kts | 226° |
| 2026-05-07 00:42 | -34.00494 | 147.42201 | 32303 ft | 362 kts | 225° |
| 2026-05-07 00:43 | -34.04455 | 147.38455 | 32268 ft | 362 kts | 225° |
| 2026-05-07 00:43 | -34.08394 | 147.34725 | 32256 ft | 360 kts | 224° |
| 2026-05-07 00:44 | -34.12378 | 147.30950 | 32266 ft | 359 kts | 224° |
| 2026-05-07 00:44 | -34.16307 | 147.27222 | 32331 ft | 358 kts | 224° |
| 2026-05-07 00:45 | -34.20223 | 147.23498 | 32274 ft | 359 kts | 223° |
| 2026-05-07 00:45 | -34.24163 | 147.19751 | 32263 ft | 358 kts | 223° |
| 2026-05-07 00:46 | -34.28078 | 147.16022 | 32273 ft | 357 kts | 223° |
| 2026-05-07 00:46 | -34.31998 | 147.12284 | 32274 ft | 356 kts | 223° |
| 2026-05-07 00:47 | -34.35881 | 147.08574 | 32273 ft | 355 kts | 222° |
| 2026-05-07 00:47 | -34.39752 | 147.04874 | 32280 ft | 354 kts | 222° |
| 2026-05-07 00:48 | -34.43631 | 147.01163 | 32276 ft | 352 kts | 222° |
| 2026-05-07 00:48 | -34.47467 | 146.97486 | 32275 ft | 351 kts | 222° |
| 2026-05-07 00:49 | -34.51324 | 146.93784 | 32329 ft | 351 kts | 221° |
| 2026-05-07 00:49 | -34.54531 | 146.90703 | 32288 ft | 351 kts | 221° |
| 2026-05-07 00:50 | -34.58358 | 146.87023 | 32276 ft | 351 kts | 221° |
| 2026-05-07 00:50 | -34.62178 | 146.83343 | 32227 ft | 350 kts | 221° |
| 2026-05-07 00:51 | -34.65975 | 146.79680 | 32269 ft | 348 kts | 221° |
| 2026-05-07 00:51 | -34.69789 | 146.76001 | 32284 ft | 348 kts | 220° |
| 2026-05-07 00:52 | -34.73546 | 146.72372 | 32278 ft | 348 kts | 220° |
| 2026-05-07 00:52 | -34.77353 | 146.68689 | 32277 ft | 347 kts | 220° |
| 2026-05-07 00:53 | -34.81204 | 146.64959 | 32274 ft | 347 kts | 220° |
| 2026-05-07 00:53 | -34.85004 | 146.61273 | 32303 ft | 348 kts | 219° |
| 2026-05-07 00:54 | -34.88771 | 146.57614 | 32278 ft | 349 kts | 219° |
| 2026-05-07 00:54 | -34.92571 | 146.53920 | 32283 ft | 349 kts | 219° |
| 2026-05-07 00:55 | -34.96373 | 146.50220 | 32279 ft | 350 kts | 219° |
| 2026-05-07 00:55 | -35.00199 | 146.46491 | 32330 ft | 351 kts | 219° |
| 2026-05-07 00:56 | -35.04020 | 146.42761 | 32292 ft | 353 kts | 219° |
| 2026-05-07 00:56 | -35.07855 | 146.39015 | 32279 ft | 353 kts | 219° |
| 2026-05-07 00:57 | -35.11693 | 146.35261 | 32276 ft | 353 kts | 219° |